createdAt,value
2019-06-15T00:02:21.002Z,10.27
2019-06-15T00:04:48.625Z,11.07
2019-06-15T00:07:16.211Z,12.43
2019-06-15T00:09:43.800Z,10.93
2019-06-15T00:12:11.421Z,11.17
2019-06-15T00:14:39.006Z,11.23
2019-06-15T00:17:07.493Z,9.90
2019-06-15T00:19:34.970Z,10.43
2019-06-15T00:22:02.578Z,11.00
2019-06-15T00:24:35.451Z,12.37
2019-06-15T00:26:57.759Z,9.97
2019-06-15T00:29:25.383Z,9.93
2019-06-15T00:31:53.334Z,11.73
2019-06-15T00:34:20.914Z,10.87
2019-06-15T00:36:48.501Z,14.63
2019-06-15T00:39:16.118Z,10.53
2019-06-15T00:41:43.710Z,11.60
2019-06-15T00:44:11.302Z,11.73
2019-06-15T00:46:38.921Z,13.70
2019-06-15T00:49:06.495Z,10.33
2019-06-15T00:51:34.840Z,11.20
2019-06-15T00:54:02.463Z,12.33
2019-06-15T00:56:30.054Z,15.57
2019-06-15T00:58:57.674Z,14.37
2019-06-15T01:01:26.025Z,13.33
2019-06-15T01:03:53.618Z,14.10
2019-06-15T01:06:21.554Z,16.42
2019-06-15T01:08:49.145Z,14.20
2019-06-15T01:11:16.753Z,14.85
2019-06-15T01:13:44.364Z,14.43
2019-06-15T01:16:12.719Z,12.33
2019-06-15T01:18:40.312Z,13.90
2019-06-15T01:21:07.922Z,15.50
2019-06-15T01:23:35.520Z,11.37
2019-06-15T01:26:03.681Z,11.50
2019-06-15T01:28:31.268Z,13.20
2019-06-15T01:30:59.622Z,15.02
2019-06-15T01:33:27.248Z,12.33
2019-06-15T01:35:54.829Z,13.23
2019-06-15T01:38:22.421Z,14.53
2019-06-15T01:40:50.042Z,17.93
2019-06-15T01:43:17.686Z,14.13
2019-06-15T01:45:45.223Z,26.70
2019-06-15T01:48:13.651Z,21.87
2019-06-15T01:50:41.234Z,14.63
2019-06-15T01:53:08.820Z,18.47
2019-06-15T01:55:37.197Z,15.13
2019-06-15T01:58:05.550Z,18.67
2019-06-15T02:00:33.437Z,15.83
2019-06-15T02:03:01.023Z,17.43
2019-06-15T02:05:28.617Z,17.20
2019-06-15T02:07:56.722Z,14.10
2019-06-15T02:10:24.313Z,16.47
2019-06-15T02:12:52.672Z,18.65
2019-06-15T02:15:20.297Z,17.83
2019-06-15T02:17:47.883Z,17.17
2019-06-15T02:20:15.516Z,17.53
2019-06-15T02:22:43.140Z,17.40
2019-06-15T02:25:10.702Z,20.30
2019-06-15T02:27:39.976Z,20.77
2019-06-15T02:30:07.576Z,18.40
2019-06-15T02:32:35.933Z,21.67
2019-06-15T02:35:03.594Z,17.63
2019-06-15T02:37:31.172Z,16.33
2019-06-15T02:39:59.526Z,16.17
2019-06-15T02:42:27.162Z,17.10
2019-06-15T02:44:54.738Z,22.02
2019-06-15T02:47:22.331Z,16.40
2019-06-15T02:49:50.698Z,19.57
2019-06-15T02:52:18.281Z,14.83
2019-06-15T02:54:45.916Z,14.33
2019-06-15T02:57:13.502Z,15.40
2019-06-15T02:59:41.860Z,15.47
2019-06-15T03:02:09.481Z,14.93
2019-06-15T03:04:37.062Z,18.17
2019-06-15T03:07:04.648Z,15.77
2019-06-15T03:09:32.268Z,15.00
2019-06-15T03:11:59.854Z,16.47
2019-06-15T03:14:27.441Z,15.63
2019-06-15T03:16:55.831Z,15.10
2019-06-15T03:19:24.183Z,16.27
2019-06-15T03:21:51.771Z,13.93
2019-06-15T03:24:20.153Z,15.17
2019-06-15T03:26:48.509Z,14.77
2019-06-15T03:29:16.128Z,15.90
2019-06-15T03:31:43.723Z,16.70
2019-06-15T03:34:11.311Z,16.13
2019-06-15T03:36:38.930Z,18.58
2019-06-15T03:39:06.518Z,16.40
2019-06-15T03:41:34.112Z,16.43
2019-06-15T03:44:01.743Z,14.93
2019-06-15T03:46:29.331Z,17.87
2019-06-15T03:48:57.708Z,17.00
2019-06-15T03:51:26.144Z,14.07
2019-06-15T03:53:53.671Z,16.57
2019-06-15T03:56:22.323Z,16.10
2019-06-15T03:58:48.881Z,14.73
2019-06-15T04:01:28.504Z,17.00
2019-06-15T04:03:56.854Z,15.50
2019-06-15T04:06:24.440Z,17.20
2019-06-15T04:08:52.050Z,16.37
2019-06-15T04:11:19.683Z,15.30
2019-06-15T04:13:47.251Z,17.50
2019-06-15T04:16:14.846Z,20.33
2019-06-15T04:18:42.492Z,17.93
2019-06-15T04:21:10.823Z,20.57
2019-06-15T04:23:38.461Z,19.60
2019-06-15T04:26:06.044Z,22.13
2019-06-15T04:28:33.637Z,19.57
2019-06-15T04:31:02.015Z,22.33
2019-06-15T04:33:29.602Z,18.50
2019-06-15T04:35:57.199Z,16.00
2019-06-15T04:38:24.818Z,13.77
2019-06-15T04:40:52.400Z,13.40
2019-06-15T04:43:20.436Z,17.40
2019-06-15T04:45:48.047Z,13.73
2019-06-15T04:48:15.623Z,15.60
2019-06-15T04:50:43.576Z,13.27
2019-06-15T04:53:11.184Z,15.17
2019-06-15T04:55:39.535Z,15.10
2019-06-15T04:58:07.160Z,16.33
2019-06-15T05:00:34.745Z,9.57
2019-06-15T05:03:02.339Z,12.73
2019-06-15T05:05:30.234Z,11.93
2019-06-15T05:07:57.822Z,8.27
2019-06-15T05:10:25.408Z,8.53
2019-06-15T05:12:53.296Z,9.10
2019-06-15T05:15:20.880Z,10.30
2019-06-15T05:17:48.493Z,6.40
2019-06-15T05:20:16.099Z,6.60
2019-06-15T05:22:44.837Z,5.07
2019-06-15T05:25:12.479Z,4.80
2019-06-15T05:27:40.046Z,5.10
2019-06-15T05:30:07.640Z,4.37
2019-06-15T05:32:35.251Z,6.23
2019-06-15T05:35:02.833Z,7.10
2019-06-15T05:37:30.417Z,5.23
2019-06-15T05:39:58.300Z,4.50
2019-06-15T05:42:25.883Z,5.30
2019-06-15T05:44:54.237Z,7.72
2019-06-15T05:47:21.858Z,5.43
2019-06-15T05:49:49.442Z,5.17
2019-06-15T05:52:17.031Z,5.10
2019-06-15T05:54:44.641Z,6.80
2019-06-15T05:57:21.289Z,6.47
2019-06-15T05:59:39.814Z,6.50
2019-06-15T06:02:07.437Z,6.73
2019-06-15T06:04:35.033Z,5.70
2019-06-15T06:07:02.625Z,4.43
2019-06-15T06:09:31.221Z,3.27
2019-06-15T06:11:58.809Z,5.43
2019-06-15T06:14:26.402Z,6.87
2019-06-15T06:16:54.011Z,3.93
2019-06-15T06:19:21.597Z,6.47
2019-06-15T06:21:49.241Z,3.60
2019-06-15T06:24:16.818Z,3.67
2019-06-15T06:26:44.415Z,3.10
2019-06-15T06:29:11.998Z,3.97
2019-06-15T06:31:40.391Z,6.23
2019-06-15T06:34:08.731Z,2.90
2019-06-15T06:36:36.314Z,3.20
2019-06-15T06:39:04.713Z,2.67
2019-06-15T06:41:32.296Z,3.73
2019-06-15T06:44:00.188Z,4.33
2019-06-15T06:46:27.816Z,4.53
2019-06-15T06:48:55.390Z,3.73
2019-06-15T06:51:23.584Z,10.63
2019-06-15T06:53:51.225Z,7.73
2019-06-15T06:56:18.824Z,2.57
2019-06-15T06:58:46.451Z,8.17
2019-06-15T07:01:14.035Z,5.53
2019-06-15T07:03:41.860Z,3.30
2019-06-15T07:06:09.612Z,3.07
2019-06-15T07:08:37.200Z,2.53
2019-06-15T07:11:04.762Z,2.20
2019-06-15T07:13:32.394Z,2.53
2019-06-15T07:16:00.392Z,4.47
2019-06-15T07:18:28.057Z,2.37
2019-06-15T07:20:56.238Z,4.13
2019-06-15T07:23:23.818Z,1.70
2019-06-15T07:25:51.454Z,3.97
2019-06-15T07:28:19.127Z,2.30
2019-06-15T07:30:46.662Z,2.40
2019-06-15T07:33:15.052Z,2.40
2019-06-15T07:35:42.635Z,1.67
2019-06-15T07:38:10.224Z,1.77
2019-06-15T07:40:37.866Z,4.53
2019-06-15T07:43:05.452Z,2.57
2019-06-15T07:45:33.040Z,3.00
2019-06-15T07:48:01.438Z,1.77
2019-06-15T07:50:29.013Z,1.60
2019-06-15T07:52:56.628Z,2.23
2019-06-15T07:55:24.193Z,2.23
2019-06-15T07:57:51.782Z,2.23
2019-06-15T08:00:19.426Z,2.37
2019-06-15T08:02:47.865Z,3.13
2019-06-15T08:05:15.446Z,2.60
2019-06-15T08:07:43.090Z,1.70
2019-06-15T08:10:10.638Z,3.87
2019-06-15T08:12:38.260Z,3.63
2019-06-15T08:15:06.610Z,1.50
2019-06-15T08:17:34.483Z,2.30
2019-06-15T08:20:02.798Z,2.42
2019-06-15T08:22:31.140Z,1.60
2019-06-15T08:24:58.776Z,2.37
2019-06-15T08:27:26.349Z,1.70
2019-06-15T08:29:53.934Z,2.67
2019-06-15T08:32:21.588Z,2.03
2019-06-15T08:34:49.168Z,2.00
2019-06-15T08:37:16.832Z,3.10
2019-06-15T08:39:45.893Z,1.93
2019-06-15T08:42:13.555Z,1.90
2019-06-15T08:44:41.181Z,1.90
2019-06-15T08:47:08.781Z,3.23
2019-06-15T08:49:36.393Z,2.87
2019-06-15T08:52:04.489Z,1.40
2019-06-15T08:54:31.889Z,1.50
2019-06-15T08:56:59.504Z,5.07
2019-06-15T08:59:27.084Z,2.13
2019-06-15T09:01:54.709Z,1.90
2019-06-15T09:04:22.291Z,3.70
2019-06-15T09:06:49.876Z,1.70
2019-06-15T09:09:17.490Z,3.67
2019-06-15T09:11:45.144Z,2.13
2019-06-15T09:14:12.707Z,2.60
2019-06-15T09:16:40.289Z,1.90
2019-06-15T09:19:08.654Z,2.13
2019-06-15T09:21:37.603Z,4.03
2019-06-15T09:24:05.189Z,2.57
2019-06-15T09:26:33.174Z,1.73
2019-06-15T09:29:10.718Z,1.70
2019-06-15T09:31:28.350Z,1.40
2019-06-15T09:33:55.947Z,1.73
2019-06-15T09:36:23.545Z,4.20
2019-06-15T09:38:51.128Z,1.95
2019-06-15T09:41:18.754Z,3.10
2019-06-15T09:43:47.145Z,1.60
2019-06-15T09:46:14.739Z,1.80
2019-06-15T09:48:42.443Z,1.77
2019-06-15T09:51:10.154Z,1.97
2019-06-15T09:53:41.224Z,3.73
2019-06-15T09:56:08.856Z,1.53
2019-06-15T09:58:36.448Z,2.03
2019-06-15T10:01:04.088Z,1.37
2019-06-15T10:03:31.700Z,2.60
2019-06-15T10:05:59.295Z,4.37
2019-06-15T10:08:26.953Z,1.97
2019-06-15T10:10:54.511Z,3.50
2019-06-15T10:13:22.894Z,1.40
2019-06-15T10:15:51.261Z,3.83
2019-06-15T10:18:18.859Z,3.43
2019-06-15T10:20:46.491Z,6.40
2019-06-15T10:23:14.838Z,2.17
2019-06-15T10:25:42.444Z,4.27
2019-06-15T10:28:10.216Z,3.13
2019-06-15T10:33:44.236Z,2.30
2019-06-15T10:36:09.416Z,2.23
2019-06-15T10:38:33.427Z,2.70
2019-06-15T10:41:01.014Z,3.37
2019-06-15T10:43:28.626Z,2.30
2019-06-15T10:45:56.231Z,1.83
2019-06-15T10:48:23.811Z,2.00
2019-06-15T10:50:51.511Z,3.93
2019-06-15T10:53:19.094Z,5.13
2019-06-15T10:55:46.669Z,3.37
2019-06-15T10:58:14.311Z,3.73
2019-06-15T11:00:41.900Z,2.07
2019-06-15T11:03:09.551Z,4.67
2019-06-15T11:05:37.875Z,2.07
2019-06-15T11:08:11.204Z,3.80
2019-06-15T11:10:53.835Z,8.40
2019-06-15T11:13:23.058Z,4.22
2019-06-15T11:15:49.346Z,2.87
2019-06-15T11:18:37.850Z,4.30
2019-06-15T11:20:51.391Z,2.60
2019-06-15T11:23:19.055Z,5.57
2019-06-15T11:25:46.672Z,3.13
2019-06-15T11:28:14.263Z,2.30
2019-06-15T11:30:41.887Z,3.60
2019-06-15T11:33:10.238Z,2.30
2019-06-15T11:35:39.399Z,3.93
2019-06-15T11:38:07.986Z,5.63
2019-06-15T12:09:55.849Z,3.53
2019-06-15T12:12:23.494Z,3.67
2019-06-15T12:14:51.995Z,3.10
2019-06-15T12:17:19.605Z,2.83
2019-06-15T12:19:47.204Z,3.23
2019-06-15T12:22:14.815Z,2.03
2019-06-15T12:24:42.415Z,1.90
2019-06-15T12:27:10.095Z,2.10
2019-06-15T12:29:38.083Z,4.17
2019-06-15T12:35:15.977Z,1.90
2019-06-15T12:44:07.447Z,4.70
2019-06-15T13:19:16.630Z,2.53
2019-06-15T13:21:44.223Z,5.03
2019-06-15T13:24:13.142Z,1.87
2019-06-15T13:26:41.576Z,4.33
2019-06-15T13:29:09.268Z,1.60
2019-06-15T13:31:36.988Z,4.33
2019-06-15T13:34:04.586Z,3.90
2019-06-15T13:36:32.539Z,3.47
2019-06-15T13:39:00.122Z,4.50
2019-06-15T13:41:27.764Z,2.70
2019-06-15T13:43:55.346Z,2.42
2019-06-15T13:46:22.978Z,2.90
2019-06-15T13:48:50.692Z,2.13
2019-06-15T13:51:18.982Z,2.03
2019-06-15T13:53:47.509Z,2.80
2019-06-15T13:56:15.287Z,1.80
2019-06-15T13:58:42.925Z,3.63
2019-06-15T14:01:10.561Z,2.57
2019-06-15T14:03:38.250Z,2.30
2019-06-15T14:06:05.899Z,2.97
2019-06-15T14:08:33.645Z,2.67
2019-06-15T14:11:02.077Z,4.77
2019-06-15T14:13:29.700Z,3.40
2019-06-15T14:15:57.370Z,2.30
2019-06-15T14:18:24.996Z,2.97
2019-06-15T14:20:52.660Z,4.13
2019-06-15T14:23:20.278Z,4.10
2019-06-15T14:25:47.905Z,2.83
2019-06-15T14:28:16.349Z,3.40
2019-06-15T14:30:44.034Z,4.00
2019-06-15T14:33:11.731Z,2.50
2019-06-15T14:35:39.398Z,5.57
2019-06-15T14:38:07.765Z,3.03
2019-06-15T14:40:35.564Z,2.87
2019-06-15T14:43:03.203Z,1.90
2019-06-15T14:45:30.905Z,5.00
2019-06-15T14:47:58.526Z,3.37
2019-06-15T14:50:26.131Z,3.97
2019-06-15T14:52:53.797Z,2.13
2019-06-15T14:55:21.379Z,4.37
2019-06-15T14:57:49.375Z,2.63
2019-06-15T15:00:18.114Z,3.50
2019-06-15T15:02:46.816Z,1.60
2019-06-15T15:05:14.733Z,1.87
2019-06-15T15:07:41.352Z,2.20
2019-06-15T15:10:08.939Z,3.67
2019-06-15T15:12:36.949Z,1.90
2019-06-15T15:15:04.142Z,3.53
2019-06-15T15:17:32.489Z,2.53
2019-06-15T15:20:03.775Z,2.13
2019-06-15T15:22:28.440Z,2.90
2019-06-15T15:24:56.223Z,2.37
2019-06-15T15:27:23.672Z,3.40
2019-06-15T15:29:51.261Z,2.57
2019-06-15T15:32:27.109Z,2.27
2019-06-15T15:34:46.474Z,2.00
2019-06-15T15:37:15.898Z,2.13
2019-06-15T15:39:42.097Z,2.57
2019-06-15T15:42:09.653Z,3.40
2019-06-15T15:44:37.238Z,3.33
2019-06-15T15:47:07.048Z,6.60
2019-06-15T15:49:32.432Z,4.27
2019-06-15T15:52:00.070Z,5.13
2019-06-15T15:54:27.636Z,5.18
2019-06-15T15:56:56.012Z,4.67
2019-06-15T15:59:23.689Z,2.90
2019-06-15T16:01:51.271Z,2.50
2019-06-15T16:04:18.911Z,2.10
2019-06-15T16:06:46.844Z,2.80
2019-06-15T16:09:16.657Z,2.40
2019-06-15T16:11:41.902Z,2.27
2019-06-15T16:14:09.545Z,2.20
2019-06-15T16:16:37.299Z,4.20
2019-06-15T16:19:07.881Z,4.30
2019-06-15T16:21:36.693Z,2.97
2019-06-15T16:24:03.157Z,1.90
2019-06-15T16:26:30.763Z,3.83
2019-06-15T16:28:58.588Z,4.43
2019-06-15T16:31:29.081Z,2.83
2019-06-15T16:33:53.874Z,2.00
2019-06-15T16:36:22.277Z,1.40
2019-06-15T16:38:49.896Z,2.17
2019-06-15T16:41:18.343Z,3.10
2019-06-15T16:43:46.212Z,2.60
2019-06-15T16:46:13.496Z,5.57
2019-06-15T16:48:41.673Z,2.53
2019-06-15T16:51:09.243Z,3.72
2019-06-15T16:53:37.417Z,1.83
2019-06-15T16:56:06.190Z,5.53
2019-06-15T16:58:33.253Z,1.67
2019-06-15T17:01:00.841Z,8.30
2019-06-15T17:03:29.530Z,4.13
2019-06-15T17:05:57.367Z,2.83
2019-06-15T17:08:24.071Z,8.53
2019-06-15T17:10:51.644Z,2.70
2019-06-15T17:13:19.229Z,5.10
2019-06-15T17:15:47.391Z,2.53
2019-06-15T17:18:14.893Z,3.20
2019-06-15T17:20:48.299Z,4.32
2019-06-15T17:23:16.555Z,4.30
2019-06-15T17:25:44.003Z,3.63
2019-06-15T17:28:11.878Z,3.77
2019-06-15T17:30:40.522Z,3.53
2019-06-15T17:33:08.481Z,4.80
2019-06-15T17:35:36.274Z,4.93
2019-06-15T17:38:04.086Z,2.13
2019-06-15T17:40:31.719Z,2.70
2019-06-15T17:42:59.272Z,1.90
2019-06-15T17:45:26.898Z,2.73
2019-06-15T17:47:56.871Z,5.47
2019-06-15T17:50:22.063Z,2.87
2019-06-15T17:52:49.668Z,4.55
2019-06-15T17:55:18.001Z,5.23
2019-06-15T17:57:46.520Z,3.57
2019-06-15T18:00:12.807Z,4.87
2019-06-15T18:02:40.688Z,3.20
2019-06-15T18:05:08.269Z,3.78
2019-06-15T18:07:36.105Z,2.37
2019-06-15T18:10:03.479Z,4.73
2019-06-15T18:12:31.056Z,3.93
2019-06-15T18:14:59.485Z,12.13
2019-06-15T18:17:27.061Z,6.40
2019-06-15T18:19:54.635Z,3.47
2019-06-15T18:22:22.787Z,2.70
2019-06-15T18:24:50.367Z,2.20
2019-06-15T18:27:17.941Z,2.73
2019-06-15T18:29:46.426Z,3.10
2019-06-15T18:32:13.179Z,3.20
2019-06-15T18:34:40.755Z,3.27
2019-06-15T18:37:08.372Z,5.40
2019-06-15T18:39:36.935Z,2.97
2019-06-15T18:42:03.865Z,4.10
2019-06-15T18:44:31.444Z,5.20
2019-06-15T18:46:59.030Z,3.67
2019-06-15T18:49:26.885Z,5.97
2019-06-15T18:51:56.566Z,4.67
2019-06-15T18:54:21.827Z,5.50
2019-06-15T18:56:49.426Z,4.63
2019-06-15T18:59:17.011Z,4.73
2019-06-15T19:01:46.998Z,5.90
2019-06-15T19:04:26.511Z,3.30
2019-06-15T19:06:40.845Z,2.57
2019-06-15T19:09:08.447Z,6.70
2019-06-15T19:11:36.791Z,6.03
2019-06-15T19:14:06.732Z,5.00
2019-06-15T19:16:31.988Z,5.82
2019-06-15T19:19:02.312Z,5.23
2019-06-15T19:21:29.916Z,3.53
2019-06-15T19:23:57.491Z,4.77
2019-06-15T19:26:26.908Z,6.27
2019-06-15T19:28:52.699Z,3.77
2019-06-15T19:31:20.279Z,3.47
2019-06-15T19:33:48.656Z,5.03
2019-06-15T19:36:17.006Z,6.77
2019-06-15T19:38:46.948Z,4.07
2019-06-15T19:41:12.194Z,4.45
2019-06-15T19:43:39.793Z,4.63
2019-06-15T19:46:07.428Z,4.20
2019-06-15T19:48:36.897Z,4.90
2019-06-15T19:51:02.923Z,8.40
2019-06-15T19:53:30.499Z,6.73
2019-06-15T19:55:58.111Z,4.13
2019-06-15T19:58:26.422Z,4.33
2019-06-15T20:00:53.319Z,2.83
2019-06-15T20:03:20.911Z,4.43
2019-06-15T20:05:48.553Z,6.33
2019-06-15T20:08:17.697Z,5.33
2019-06-15T20:10:43.749Z,3.90
2019-06-15T20:13:11.323Z,3.40
2019-06-15T20:15:38.900Z,3.27
2019-06-15T20:18:07.065Z,5.67
2019-06-15T20:20:37.019Z,6.60
2019-06-15T20:23:02.146Z,5.57
2019-06-15T20:25:29.571Z,5.33
2019-06-15T20:27:57.158Z,5.77
2019-06-15T20:30:25.074Z,4.80
2019-06-15T20:32:52.682Z,6.50
2019-06-15T20:35:21.332Z,6.63
2019-06-15T20:37:47.870Z,3.00
2019-06-15T20:40:16.492Z,6.50
2019-06-15T20:42:43.077Z,7.00
2019-06-15T20:45:10.665Z,6.43
2019-06-15T20:47:38.295Z,3.77
2019-06-15T20:50:06.666Z,4.57
2019-06-15T20:52:33.488Z,5.70
2019-06-15T20:55:01.071Z,4.70
2019-06-15T20:57:28.691Z,7.47
2019-06-15T20:59:57.044Z,4.60
2019-06-15T21:02:26.876Z,8.48
2019-06-15T21:04:52.258Z,6.37
2019-06-15T21:07:19.844Z,7.77
2019-06-15T21:09:47.498Z,6.43
2019-06-15T21:12:16.047Z,5.50
2019-06-15T21:14:42.652Z,5.70
2019-06-15T21:17:11.032Z,4.63
2019-06-15T21:19:39.379Z,2.70
2019-06-15T21:22:07.017Z,5.83
2019-06-15T21:24:37.233Z,5.37
2019-06-15T21:27:03.092Z,5.57
2019-06-15T21:29:30.694Z,4.47
2019-06-15T21:31:58.285Z,3.50
2019-06-15T21:34:26.494Z,3.97
2019-06-15T21:36:53.499Z,4.93
2019-06-15T21:39:21.080Z,3.30
2019-06-15T21:41:48.759Z,3.57
2019-06-15T21:44:16.767Z,5.03
2019-06-15T21:46:43.907Z,4.47
2019-06-15T21:49:12.267Z,5.27
2019-06-15T21:51:39.842Z,6.10
2019-06-15T21:54:07.442Z,6.50
2019-06-15T21:56:36.833Z,5.50
2019-06-15T21:59:02.678Z,5.27
2019-06-15T22:01:30.257Z,6.87
2019-06-15T22:03:57.837Z,5.43
2019-06-15T22:06:26.304Z,6.13
2019-06-15T22:08:53.019Z,4.70
2019-06-15T22:11:20.654Z,2.87
2019-06-15T22:13:49.037Z,4.27
2019-06-15T22:16:17.097Z,3.03
2019-06-15T22:18:47.195Z,5.87
2019-06-15T22:21:12.540Z,7.13
2019-06-15T22:23:40.142Z,6.20
2019-06-15T22:26:07.762Z,3.80
2019-06-15T22:28:36.321Z,4.57
2019-06-15T22:31:06.418Z,6.53
2019-06-15T22:33:32.025Z,6.70
2019-06-15T22:35:59.650Z,15.53
2019-06-15T22:38:27.225Z,3.77
2019-06-15T22:40:56.414Z,3.47
2019-06-15T22:43:22.407Z,6.40
2019-06-15T22:45:50.208Z,3.63
2019-06-15T22:48:17.672Z,3.90
2019-06-15T22:50:46.835Z,4.43
2019-06-15T22:53:13.230Z,3.33
2019-06-15T22:55:40.840Z,3.53
2019-06-15T22:58:08.450Z,4.50
2019-06-15T23:00:37.591Z,7.23
2019-06-15T23:03:06.095Z,7.27
2019-06-15T23:05:31.231Z,3.97
2019-06-15T23:07:58.810Z,6.03
2019-06-15T23:10:26.421Z,4.13
2019-06-15T23:12:56.786Z,5.90
2019-06-15T23:15:22.373Z,6.13
2019-06-15T23:17:49.954Z,6.03
2019-06-15T23:20:17.530Z,4.33
2019-06-15T23:22:46.775Z,4.37
2019-06-15T23:25:13.500Z,3.00
2019-06-15T23:27:41.081Z,4.60
2019-06-15T23:30:08.695Z,5.20
2019-06-15T23:32:36.282Z,3.77
2019-06-15T23:35:06.788Z,6.33
2019-06-15T23:37:37.348Z,6.13
2019-06-15T23:40:20.206Z,4.57
2019-06-15T23:42:47.818Z,5.83
2019-06-15T23:45:16.159Z,5.33
2019-06-15T23:47:43.359Z,4.70
2019-06-15T23:50:11.331Z,6.17
2019-06-15T23:52:38.913Z,4.03
2019-06-15T23:55:07.276Z,5.37
2019-06-15T23:57:36.898Z,4.83
